Terminal Aerodrome Forecast
Issued by NWS

Home | Current Version | Previous Version | Text Only | Print | Product List | Glossary On
Versions: 1 2 3 4 5 6 7 8 9 10 11 12 13 14 15 16 17 18 19 20 21 22 23 24 25 26 27 28 29 30 31 32 33 34 35 36
620
FTUS41 KOKX 220235 AAB
TAFSWF
TAF AMD
KSWF 220235Z 2203/2306 00000KT 1/4SM FG OVC002
     FM221400 VRB02KT 1SM BR OVC005
     FM221600 08005KT 2SM BR OVC007
     FM221800 08008KT 5SM BR BKN010 OVC018
     FM230000 08016KT 4SM -RA BR OVC009
      AMD NOT SKED=

USA.gov is the U.S. government's official web portal to all federal, state and local government web resources and services.